createdAt,value
2019-06-08T00:02:04.929Z,91.50
2019-06-08T00:04:31.173Z,91.60
2019-06-08T00:06:57.416Z,91.70
2019-06-08T00:09:24.107Z,91.20
2019-06-08T00:11:50.548Z,91.20
2019-06-08T00:14:17.430Z,91.20
2019-06-08T00:16:43.886Z,91.10
2019-06-08T00:19:10.145Z,91.00
2019-06-08T00:21:36.396Z,90.70
2019-06-08T00:24:02.831Z,90.60
2019-06-08T00:26:29.169Z,90.50
2019-06-08T00:28:55.404Z,90.50
2019-06-08T00:31:21.849Z,90.30
2019-06-08T00:33:48.203Z,90.20
2019-06-08T00:36:14.792Z,90.40
2019-06-08T00:38:41.109Z,90.50
2019-06-08T00:41:07.374Z,90.70
2019-06-08T00:43:33.625Z,90.70
2019-06-08T00:45:59.960Z,90.80
2019-06-08T00:48:26.413Z,90.90
2019-06-08T00:50:52.642Z,91.00
2019-06-08T00:53:19.727Z,91.20
2019-06-08T00:55:46.571Z,91.30
2019-06-08T00:58:12.910Z,91.40
2019-06-08T01:00:39.271Z,91.90
2019-06-08T01:03:05.508Z,91.70
2019-06-08T01:05:31.740Z,91.70
2019-06-08T01:07:58.067Z,91.70
2019-06-08T01:10:25.535Z,91.80
2019-06-08T01:12:52.057Z,91.80
2019-06-08T01:15:25.036Z,91.80
2019-06-08T01:18:01.583Z,91.80
2019-06-08T01:20:15.343Z,92.00
2019-06-08T01:22:41.757Z,91.90
2019-06-08T01:25:08.434Z,91.70
2019-06-08T01:27:34.761Z,91.70
2019-06-08T01:30:01.202Z,91.60
2019-06-08T01:32:28.553Z,91.70
2019-06-08T01:34:55.055Z,91.70
2019-06-08T01:37:22.852Z,91.70
2019-06-08T01:39:49.475Z,91.80
2019-06-08T01:42:15.739Z,91.80
2019-06-08T01:44:42.165Z,91.70
2019-06-08T01:47:08.656Z,91.60
2019-06-08T01:49:34.981Z,91.50
2019-06-08T01:52:01.199Z,91.50
2019-06-08T01:54:29.457Z,91.50
2019-06-08T01:56:55.570Z,91.80
2019-06-08T01:59:23.261Z,91.80
2019-06-08T02:01:49.752Z,91.80
2019-06-08T02:04:15.976Z,91.70
2019-06-08T02:06:42.322Z,91.80
2019-06-08T02:09:08.644Z,91.70
2019-06-08T02:11:35.027Z,91.60
2019-06-08T02:14:01.646Z,91.60
2019-06-08T02:16:29.624Z,91.50
2019-06-08T02:18:56.029Z,91.60
2019-06-08T02:21:22.297Z,91.50
2019-06-08T02:23:48.597Z,91.20
2019-06-08T02:26:14.835Z,91.20
2019-06-08T02:28:41.174Z,91.00
2019-06-08T02:31:07.514Z,90.90
2019-06-08T02:33:35.001Z,90.70
2019-06-08T02:36:01.810Z,90.70
2019-06-08T02:38:29.739Z,90.70
2019-06-08T02:40:56.201Z,90.50
2019-06-08T02:43:22.542Z,90.10
2019-06-08T02:45:49.007Z,90.30
2019-06-08T02:48:15.243Z,90.20
2019-06-08T02:50:54.076Z,90.20
2019-06-08T02:53:21.996Z,90.30
2019-06-08T02:55:49.337Z,90.30
2019-06-08T02:58:16.288Z,90.30
2019-06-08T03:00:47.212Z,90.40
2019-06-08T03:03:14.824Z,90.40
2019-06-08T03:05:41.183Z,90.50
2019-06-08T03:08:09.182Z,90.70
2019-06-08T03:10:37.116Z,90.70
2019-06-08T03:13:03.994Z,90.80
2019-06-08T03:15:34.335Z,90.70
2019-06-08T03:17:59.638Z,90.60
2019-06-08T03:20:25.974Z,90.70
2019-06-08T03:22:52.329Z,90.60
2019-06-08T03:25:18.653Z,90.80
2019-06-08T03:27:44.888Z,90.90
2019-06-08T03:30:17.742Z,90.70
2019-06-08T03:32:46.977Z,90.80
2019-06-08T03:35:08.105Z,90.90
2019-06-08T03:37:35.745Z,90.90
2019-06-08T03:40:03.284Z,90.70
2019-06-08T03:42:29.686Z,90.30
2019-06-08T03:44:57.117Z,90.10
2019-06-08T03:47:23.337Z,90.10
2019-06-08T03:49:56.703Z,90.40
2019-06-08T03:52:17.702Z,90.20
2019-06-08T03:54:45.253Z,90.40
2019-06-08T03:57:12.061Z,90.30
2019-06-08T03:59:38.603Z,90.10
2019-06-08T04:02:06.374Z,90.00
2019-06-08T04:04:32.614Z,89.80
2019-06-08T04:06:58.825Z,89.20
2019-06-08T04:09:25.062Z,89.10
2019-06-08T04:11:51.569Z,88.00
2019-06-08T04:14:17.899Z,88.20
2019-06-08T04:16:45.023Z,88.20
2019-06-08T04:19:12.349Z,88.20
2019-06-08T04:21:40.142Z,88.00
2019-06-08T04:24:06.788Z,88.10
2019-06-08T04:26:33.131Z,87.70
2019-06-08T04:28:59.438Z,87.40
2019-06-08T04:31:25.752Z,87.70
2019-06-08T04:33:52.009Z,85.80
2019-06-08T04:36:18.322Z,85.40
2019-06-08T04:38:45.731Z,83.60
2019-06-08T04:41:12.678Z,83.60
2019-06-08T04:43:40.411Z,83.90
2019-06-08T04:46:06.716Z,83.80
2019-06-08T04:48:33.066Z,83.70
2019-06-08T04:50:59.784Z,84.50
2019-06-08T04:53:26.110Z,84.30
2019-06-08T04:55:52.354Z,84.20
2019-06-08T04:58:18.572Z,84.40
2019-06-08T05:00:46.259Z,85.00
2019-06-08T05:03:13.037Z,83.80
2019-06-08T05:05:40.700Z,82.90
2019-06-08T05:08:07.378Z,80.60
2019-06-08T05:10:33.715Z,80.00
2019-06-08T05:13:00.026Z,79.30
2019-06-08T05:15:26.354Z,77.90
2019-06-08T05:17:52.707Z,77.20
2019-06-08T05:20:19.112Z,76.80
2019-06-08T05:22:45.646Z,75.90
2019-06-08T05:25:12.406Z,73.40
2019-06-08T05:27:39.358Z,72.30
2019-06-08T05:30:08.800Z,72.70
2019-06-08T05:32:35.381Z,71.80
2019-06-08T05:35:03.912Z,71.60
2019-06-08T05:37:30.154Z,73.30
2019-06-08T05:39:56.403Z,73.10
2019-06-08T05:42:22.613Z,74.40
2019-06-08T05:44:50.264Z,75.40
2019-06-08T05:47:16.775Z,77.00
2019-06-08T05:49:43.705Z,78.30
2019-06-08T05:52:10.001Z,78.30
2019-06-08T05:54:36.251Z,77.50
2019-06-08T05:57:02.460Z,77.70
2019-06-08T05:59:28.765Z,74.50
2019-06-08T06:01:54.999Z,75.30
2019-06-08T06:04:21.342Z,71.40
2019-06-08T06:06:49.222Z,71.30
2019-06-08T06:09:15.592Z,72.20
2019-06-08T06:11:42.862Z,72.40
2019-06-08T06:14:09.226Z,70.70
2019-06-08T06:16:35.557Z,71.00
2019-06-08T06:19:01.774Z,72.20
2019-06-08T06:21:28.086Z,71.50
2019-06-08T06:23:54.531Z,71.40
2019-06-08T06:26:20.749Z,69.70
2019-06-08T06:28:47.589Z,69.80
2019-06-08T06:31:14.011Z,70.10
2019-06-08T06:33:41.866Z,71.20
2019-06-08T06:36:08.346Z,70.50
2019-06-08T06:38:34.579Z,69.30
2019-06-08T06:41:00.898Z,67.80
2019-06-08T06:43:27.125Z,65.40
2019-06-08T06:45:53.373Z,67.00
2019-06-08T06:48:23.287Z,67.70
2019-06-08T06:50:48.359Z,69.40
2019-06-08T06:53:14.803Z,70.60
2019-06-08T06:55:41.013Z,70.80
2019-06-08T06:58:07.229Z,72.10
2019-06-08T07:00:33.567Z,72.90
2019-06-08T07:03:01.005Z,73.20
2019-06-08T07:05:27.221Z,74.90
2019-06-08T07:07:54.532Z,75.50
2019-06-08T07:10:20.885Z,75.10
2019-06-08T07:12:48.600Z,75.00
2019-06-08T07:15:18.817Z,75.10
2019-06-08T07:17:46.061Z,75.50
2019-06-08T07:20:12.567Z,74.80
2019-06-08T07:22:38.829Z,74.40
2019-06-08T07:25:05.450Z,75.20
2019-06-08T07:27:31.677Z,75.40
2019-06-08T07:29:59.014Z,76.00
2019-06-08T07:32:25.470Z,76.20
2019-06-08T07:34:53.088Z,76.10
2019-06-08T07:37:19.521Z,75.20
2019-06-08T07:39:45.745Z,75.20
2019-06-08T07:42:11.977Z,74.30
2019-06-08T07:44:38.349Z,73.00
2019-06-08T07:47:04.655Z,73.60
2019-06-08T07:49:31.038Z,70.50
2019-06-08T07:52:07.524Z,71.00
2019-06-08T07:54:25.609Z,71.00
2019-06-08T07:56:52.908Z,73.20
2019-06-08T07:59:19.307Z,71.70
2019-06-08T08:01:45.617Z,71.40
2019-06-08T08:04:11.829Z,71.10
2019-06-08T08:06:38.071Z,71.50
2019-06-08T08:09:05.994Z,70.00
2019-06-08T08:11:32.320Z,70.10
2019-06-08T08:13:59.111Z,70.40
2019-06-08T08:16:25.465Z,70.60
2019-06-08T08:18:51.747Z,69.20
2019-06-08T08:21:23.109Z,68.10
2019-06-08T08:23:47.833Z,69.30
2019-06-08T08:26:14.343Z,70.70
2019-06-08T08:28:40.597Z,70.60
2019-06-08T08:31:07.882Z,70.20
2019-06-08T08:33:35.129Z,71.10
2019-06-08T08:36:01.956Z,71.50
2019-06-08T08:38:28.490Z,71.00
2019-06-08T08:40:56.150Z,71.80
2019-06-08T08:43:23.158Z,72.80
2019-06-08T08:45:49.683Z,72.70
2019-06-08T08:48:25.507Z,73.20
2019-06-08T08:50:45.213Z,73.70
2019-06-08T08:53:11.429Z,73.80
2019-06-08T08:55:37.998Z,74.40
2019-06-08T08:58:04.487Z,72.70
2019-06-08T09:00:30.805Z,72.60
2019-06-08T09:03:17.153Z,72.70
2019-06-08T09:05:25.158Z,71.80
2019-06-08T09:07:52.549Z,70.30
2019-06-08T09:10:19.924Z,69.60
2019-06-08T09:12:48.363Z,69.40
2019-06-08T09:15:14.743Z,69.20
2019-06-08T09:17:41.041Z,69.20
2019-06-08T09:20:11.040Z,66.80
2019-06-08T09:22:50.193Z,67.10
2019-06-08T09:25:05.081Z,68.70
2019-06-08T09:27:31.397Z,69.60
2019-06-08T09:30:00.883Z,72.40
2019-06-08T09:32:28.078Z,70.40
2019-06-08T09:34:54.665Z,69.30
2019-06-08T09:37:21.005Z,69.00
2019-06-08T09:39:48.276Z,70.90
2019-06-08T09:42:14.801Z,71.80
2019-06-08T09:44:41.030Z,71.80
2019-06-08T09:47:12.093Z,75.80
2019-06-08T09:49:37.547Z,78.00
2019-06-08T09:52:05.169Z,79.20
2019-06-08T09:54:31.721Z,79.90
2019-06-08T09:57:00.940Z,81.90
2019-06-08T09:59:28.486Z,81.30
2019-06-08T10:01:55.613Z,81.30
2019-06-08T10:04:25.588Z,82.10
2019-06-08T10:06:51.666Z,82.10
2019-06-08T10:09:18.614Z,83.20
2019-06-08T10:11:45.149Z,84.50
2019-06-08T10:14:12.736Z,85.60
2019-06-08T10:16:39.328Z,85.00
2019-06-08T10:19:07.862Z,87.10
2019-06-08T10:21:33.787Z,86.40
2019-06-08T10:24:02.709Z,86.10
2019-06-08T10:26:28.237Z,85.80
2019-06-08T10:28:58.707Z,86.40
2019-06-08T10:31:35.550Z,86.60
2019-06-08T10:33:51.818Z,86.60
2019-06-08T10:36:18.352Z,86.60
2019-06-08T10:38:44.821Z,86.40
2019-06-08T10:41:18.927Z,86.40
2019-06-08T10:43:40.985Z,85.00
2019-06-08T10:46:14.751Z,84.40
2019-06-08T10:48:37.811Z,80.30
2019-06-08T10:51:05.246Z,78.50
2019-06-08T10:53:45.164Z,79.60
2019-06-08T10:56:01.266Z,79.80
2019-06-08T10:58:28.340Z,81.20
2019-06-08T11:00:54.754Z,81.60
2019-06-08T11:03:21.078Z,79.30
2019-06-08T11:05:48.328Z,79.10
2019-06-08T11:08:15.714Z,80.70
2019-06-08T11:10:42.045Z,79.90
2019-06-08T11:13:14.509Z,80.60
2019-06-08T11:15:37.849Z,81.80
2019-06-08T11:18:06.914Z,83.20
2019-06-08T11:20:32.483Z,84.00
2019-06-08T11:23:00.736Z,84.70
2019-06-08T11:25:28.052Z,83.10
2019-06-08T11:27:55.255Z,82.10
2019-06-08T11:30:26.781Z,82.70
2019-06-08T11:32:49.802Z,83.60
2019-06-08T11:35:17.699Z,83.60
2019-06-08T11:37:44.125Z,80.80
2019-06-08T11:40:12.535Z,80.40
2019-06-08T11:42:38.934Z,82.40
2019-06-08T11:45:10.866Z,83.10
2019-06-08T11:47:39.098Z,83.50
2019-06-08T11:50:07.289Z,82.90
2019-06-08T11:52:34.055Z,83.30
2019-06-08T11:55:02.583Z,82.50
2019-06-08T11:57:28.969Z,84.40
2019-06-08T11:59:58.356Z,82.00
2019-06-08T12:02:24.285Z,81.90
2019-06-08T12:04:50.509Z,82.80
2019-06-08T12:07:16.733Z,84.10
2019-06-08T12:09:43.177Z,84.60
2019-06-08T12:12:16.190Z,85.50
2019-06-08T12:14:40.086Z,85.60
2019-06-08T12:17:08.923Z,85.70
2019-06-08T12:19:33.925Z,84.80
2019-06-08T12:22:00.148Z,85.80
2019-06-08T12:24:40.906Z,86.60
2019-06-08T12:27:00.293Z,86.80
2019-06-08T12:29:22.630Z,85.90
2019-06-08T12:31:48.949Z,85.60
2019-06-08T12:34:18.320Z,86.00
2019-06-08T12:36:43.877Z,86.50
2019-06-08T12:39:10.205Z,87.20
2019-06-08T12:41:37.780Z,87.40
2019-06-08T12:44:04.337Z,86.80
2019-06-08T12:46:30.581Z,87.30
2019-06-08T12:48:58.267Z,86.00
2019-06-08T12:51:24.713Z,85.50
2019-06-08T12:53:52.071Z,86.10
2019-06-08T12:56:22.251Z,86.60
2019-06-08T12:58:47.624Z,86.70
2019-06-08T13:01:14.535Z,86.30
2019-06-08T13:03:40.883Z,86.30
2019-06-08T13:06:08.855Z,86.60
2019-06-08T13:08:35.385Z,83.70
2019-06-08T13:11:01.702Z,84.20
2019-06-08T13:13:29.026Z,83.70
2019-06-08T13:15:55.275Z,83.40
2019-06-08T13:18:23.389Z,83.90
2019-06-08T13:20:51.814Z,84.40
2019-06-08T13:23:19.622Z,85.00
2019-06-08T13:25:48.083Z,85.60
2019-06-08T13:28:18.401Z,86.00
2019-06-08T13:30:42.205Z,86.40
2019-06-08T13:33:08.497Z,87.10
2019-06-08T13:35:34.809Z,88.00
2019-06-08T13:38:01.050Z,87.60
2019-06-08T13:40:27.271Z,87.50
2019-06-08T13:42:53.576Z,87.40
2019-06-08T13:45:21.661Z,87.50
2019-06-08T13:47:50.217Z,87.90
2019-06-08T13:50:19.048Z,88.30
2019-06-08T13:52:44.443Z,87.80
2019-06-08T13:55:10.961Z,86.80
2019-06-08T13:57:37.896Z,87.40
2019-06-08T14:00:08.074Z,87.90
2019-06-08T14:02:34.584Z,88.20
2019-06-08T14:05:00.865Z,88.40
2019-06-08T14:07:31.785Z,89.20
2019-06-08T14:09:58.165Z,89.30
2019-06-08T14:12:25.580Z,88.40
2019-06-08T14:14:52.219Z,88.40
2019-06-08T14:17:20.900Z,89.10
2019-06-08T14:19:48.304Z,88.50
2019-06-08T14:22:14.785Z,88.90
2019-06-08T14:24:41.012Z,89.30
2019-06-08T14:27:08.254Z,89.00
2019-06-08T14:29:34.601Z,89.40
2019-06-08T14:32:00.917Z,89.40
2019-06-08T14:34:29.468Z,88.60
2019-06-08T14:37:15.201Z,88.20
2019-06-08T14:39:41.426Z,88.70
2019-06-08T14:42:08.353Z,88.40
2019-06-08T14:44:34.889Z,88.20
2019-06-08T14:47:13.417Z,89.10
2019-06-08T14:49:42.561Z,90.10
2019-06-08T14:52:10.842Z,89.80
2019-06-08T14:54:38.608Z,90.00
2019-06-08T14:57:04.950Z,90.30
2019-06-08T14:59:31.806Z,90.30
2019-06-08T15:01:58.208Z,90.20
2019-06-08T15:04:28.421Z,90.40
2019-06-08T15:06:52.678Z,90.60
2019-06-08T15:09:19.426Z,90.80
2019-06-08T15:11:47.934Z,90.90
2019-06-08T15:14:14.090Z,91.30
2019-06-08T15:16:41.759Z,91.50
2019-06-08T15:19:08.327Z,91.30
2019-06-08T15:21:34.651Z,91.30
2019-06-08T15:24:00.864Z,91.40
2019-06-08T15:26:36.673Z,91.60
2019-06-08T15:28:55.233Z,91.40
2019-06-08T15:31:21.554Z,91.50
2019-06-08T15:33:48.316Z,91.50
2019-06-08T15:36:14.722Z,92.20
2019-06-08T15:38:41.039Z,92.20
2019-06-08T15:41:07.818Z,92.20
2019-06-08T15:43:37.607Z,92.20
2019-06-08T15:46:03.317Z,92.20
2019-06-08T15:48:32.184Z,92.10
2019-06-08T15:50:58.390Z,91.30
2019-06-08T15:53:24.894Z,90.90
2019-06-08T15:55:51.554Z,90.80
2019-06-08T15:58:18.302Z,90.40
2019-06-08T16:00:44.581Z,90.40
2019-06-08T16:03:10.908Z,89.80
2019-06-08T16:05:37.149Z,89.00
2019-06-08T16:08:03.554Z,89.20
2019-06-08T16:10:30.260Z,89.60
2019-06-08T16:12:56.715Z,89.90
2019-06-08T16:15:22.933Z,90.30
2019-06-08T16:17:49.162Z,90.20
2019-06-08T16:20:15.481Z,90.30
2019-06-08T16:22:41.813Z,90.30
2019-06-08T16:25:08.136Z,90.50
2019-06-08T16:27:34.358Z,90.40
2019-06-08T16:30:00.585Z,90.30
2019-06-08T16:32:27.408Z,90.50
2019-06-08T16:34:53.841Z,91.00
2019-06-08T16:37:20.067Z,90.60
2019-06-08T16:39:46.289Z,89.90
2019-06-08T16:42:12.510Z,90.50
2019-06-08T16:44:38.942Z,90.40
2019-06-08T16:47:05.182Z,90.00
2019-06-08T16:49:31.406Z,90.20
2019-06-08T16:51:57.627Z,89.70
2019-06-08T16:54:23.873Z,90.30
2019-06-08T16:56:50.086Z,90.10
2019-06-08T16:59:16.509Z,90.30
2019-06-08T17:01:42.881Z,90.50
2019-06-08T17:04:09.104Z,90.50
2019-06-08T17:06:35.347Z,90.30
2019-06-08T17:09:01.679Z,90.50
2019-06-08T17:11:29.773Z,90.50
2019-06-08T17:13:56.201Z,90.60
2019-06-08T17:16:22.453Z,90.50
2019-06-08T17:18:48.661Z,90.60
2019-06-08T17:21:15.082Z,90.50
2019-06-08T17:23:41.420Z,90.70
2019-06-08T17:26:07.633Z,90.70
2019-06-08T17:28:35.046Z,90.80
2019-06-08T17:31:01.720Z,90.40
2019-06-08T17:33:28.029Z,90.00
2019-06-08T17:35:54.244Z,89.90
2019-06-08T17:38:20.613Z,90.00
2019-06-08T17:40:46.937Z,90.00
2019-06-08T17:43:13.250Z,90.00
2019-06-08T17:45:41.073Z,88.90
2019-06-08T17:48:07.469Z,89.50
2019-06-08T17:50:34.702Z,90.00
2019-06-08T17:53:01.439Z,90.40
2019-06-08T17:55:27.652Z,89.80
2019-06-08T17:57:55.069Z,90.10
2019-06-08T18:00:21.924Z,89.70
2019-06-08T18:02:48.425Z,89.70
2019-06-08T18:05:17.748Z,89.30
2019-06-08T18:07:44.350Z,88.90
2019-06-08T18:10:12.014Z,88.10
2019-06-08T18:12:41.051Z,88.80
2019-06-08T18:15:07.613Z,89.10
2019-06-08T18:17:39.139Z,89.70
2019-06-08T18:20:11.137Z,89.80
2019-06-08T18:22:39.703Z,90.10
2019-06-08T18:25:07.709Z,90.30
2019-06-08T18:27:34.639Z,90.40
2019-06-08T18:30:08.060Z,90.80
2019-06-08T18:32:29.088Z,91.20
2019-06-08T18:34:57.311Z,91.40
2019-06-08T18:37:23.416Z,91.10
2019-06-08T18:39:49.844Z,90.80
2019-06-08T18:42:17.930Z,90.10
2019-06-08T18:44:45.943Z,90.10
2019-06-08T18:47:12.745Z,90.30
2019-06-08T18:49:41.663Z,90.30
2019-06-08T18:52:08.122Z,90.40
2019-06-08T18:54:35.418Z,90.50
2019-06-08T18:57:05.943Z,90.10
2019-06-08T18:59:30.806Z,90.00
2019-06-08T19:01:57.017Z,90.10
2019-06-08T19:04:23.258Z,90.10
2019-06-08T19:06:50.127Z,90.10
2019-06-08T19:09:17.190Z,90.10
2019-06-08T19:11:43.652Z,90.00
2019-06-08T19:14:11.400Z,89.90
2019-06-08T19:16:40.835Z,89.80
2019-06-08T19:19:07.416Z,89.90
2019-06-08T19:21:33.847Z,90.20
2019-06-08T19:24:00.057Z,90.20
2019-06-08T19:26:28.172Z,90.10
2019-06-08T19:28:54.451Z,90.00
2019-06-08T19:31:23.730Z,90.00
2019-06-08T19:33:53.480Z,90.00
2019-06-08T19:36:18.221Z,90.00
2019-06-08T19:38:44.727Z,90.10
2019-06-08T19:41:12.805Z,90.30
2019-06-08T19:43:41.479Z,90.30
2019-06-08T19:46:07.271Z,90.20
2019-06-08T19:48:33.752Z,90.30
2019-06-08T19:51:00.002Z,90.30
2019-06-08T19:53:28.171Z,90.30
2019-06-08T19:55:54.387Z,90.60
2019-06-08T19:58:20.597Z,90.40
2019-06-08T20:00:51.854Z,90.80
2019-06-08T20:03:14.982Z,91.10
2019-06-08T20:05:41.319Z,90.90
2019-06-08T20:08:08.148Z,91.00
2019-06-08T20:10:34.586Z,91.20
2019-06-08T20:13:00.797Z,91.30
2019-06-08T20:15:27.020Z,91.10
2019-06-08T20:17:54.068Z,91.00
2019-06-08T20:20:20.502Z,90.70
2019-06-08T20:22:49.015Z,90.20
2019-06-08T20:25:17.200Z,90.40
2019-06-08T20:27:43.326Z,90.40
2019-06-08T20:30:12.269Z,90.50
2019-06-08T20:32:38.151Z,90.30
2019-06-08T20:35:07.964Z,90.30
2019-06-08T20:37:34.001Z,90.50
2019-06-08T20:40:10.177Z,90.30
2019-06-08T20:42:28.872Z,90.40
2019-06-08T20:44:57.638Z,90.40
2019-06-08T20:47:23.481Z,90.50
2019-06-08T20:49:51.861Z,90.60
2019-06-08T20:52:18.097Z,90.60
2019-06-08T20:54:44.656Z,90.80
2019-06-08T20:57:10.946Z,90.80
2019-06-08T20:59:37.639Z,90.90
2019-06-08T21:02:08.172Z,90.90
2019-06-08T21:04:33.753Z,91.10
2019-06-08T21:07:00.086Z,90.80
2019-06-08T21:09:27.821Z,90.90
2019-06-08T21:11:55.693Z,91.00
2019-06-08T21:14:22.453Z,91.30
2019-06-08T21:16:50.834Z,91.20
2019-06-08T21:19:19.029Z,91.20
2019-06-08T21:21:46.078Z,91.30
2019-06-08T21:24:13.390Z,91.30
2019-06-08T21:26:39.698Z,91.30
2019-06-08T21:29:08.249Z,91.40
2019-06-08T21:31:34.065Z,91.30
2019-06-08T21:34:00.970Z,91.20
2019-06-08T21:36:27.399Z,91.40
2019-06-08T21:38:55.683Z,91.40
2019-06-08T21:41:23.889Z,91.30
2019-06-08T21:43:53.037Z,91.30
2019-06-08T21:46:18.261Z,91.20
2019-06-08T21:48:44.568Z,91.30
2019-06-08T21:51:10.797Z,91.30
2019-06-08T21:53:38.193Z,91.20
2019-06-08T21:56:04.769Z,91.00
2019-06-08T21:58:31.007Z,91.30
2019-06-08T22:00:59.689Z,91.00
2019-06-08T22:03:28.056Z,91.20
2019-06-08T22:05:53.966Z,91.20
2019-06-08T22:08:20.279Z,91.40
2019-06-08T22:10:47.130Z,91.40
2019-06-08T22:13:13.678Z,91.40
2019-06-08T22:15:40.071Z,91.60
2019-06-08T22:18:08.020Z,91.70
2019-06-08T22:20:34.551Z,91.60
2019-06-08T22:23:01.008Z,91.60
2019-06-08T22:25:27.871Z,91.60
2019-06-08T22:27:55.980Z,91.60
2019-06-08T22:30:38.328Z,91.60
2019-06-08T22:32:52.293Z,91.70
2019-06-08T22:35:19.378Z,91.70
2019-06-08T22:37:47.917Z,91.80
2019-06-08T22:40:14.048Z,91.70
2019-06-08T22:42:40.277Z,91.70
2019-06-08T22:45:08.522Z,91.60
2019-06-08T22:47:34.702Z,91.50
2019-06-08T22:50:02.500Z,91.70
2019-06-08T22:52:29.050Z,91.60
2019-06-08T22:54:58.423Z,91.60
2019-06-08T22:57:23.445Z,91.80
2019-06-08T22:59:49.681Z,91.70
2019-06-08T23:02:18.118Z,91.90
2019-06-08T23:04:44.013Z,91.80
2019-06-08T23:07:23.466Z,91.80
2019-06-08T23:09:38.519Z,91.70
2019-06-08T23:12:08.719Z,91.70
2019-06-08T23:14:32.957Z,92.00
2019-06-08T23:17:01.213Z,91.80
2019-06-08T23:19:27.293Z,91.40
2019-06-08T23:21:53.525Z,91.50
2019-06-08T23:24:19.744Z,91.50
2019-06-08T23:26:47.941Z,91.40
2019-06-08T23:29:14.102Z,91.60
2019-06-08T23:31:40.321Z,91.60
2019-06-08T23:34:11.323Z,91.70
2019-06-08T23:36:48.352Z,91.50
2019-06-08T23:39:07.236Z,91.60
2019-06-08T23:41:33.621Z,91.50
2019-06-08T23:43:59.873Z,91.60
2019-06-08T23:46:27.351Z,91.60
2019-06-08T23:48:53.861Z,91.60
2019-06-08T23:51:20.093Z,91.70
2019-06-08T23:53:47.837Z,91.80
2019-06-08T23:56:14.233Z,91.80
2019-06-08T23:58:40.530Z,91.90
